Time;durP1;ratioP1;P1;durP2;ratioP2;P2;SDS_P1;SDS_P2;PMS_P1;PMS_P2;Temp;Humidity;BMP_temperature;BMP_pressure;BME280_temperature;BME280_humidity;BME280_pressure;Samples;Min_cycle;Max_cycle;Signal;HPM_P1;HPM_P2
2022/05/06 00:01:35;;;;;;;30.50;14.63;;;;;;;-145.18;100.00;60484.78;5045598;28;20104;-69
2022/05/06 00:04:00;;;;;;;28.13;14.90;;;;;;;-145.18;100.00;60484.78;5041401;28;20112;-69
2022/05/06 00:06:28;;;;;;;30.43;15.20;;;;;;;-145.18;100.00;60484.78;5045369;28;20052;-69
2022/05/06 00:08:54;;;;;;;30.57;15.10;;;;;;;-145.18;100.00;60484.78;5042330;28;20029;-69
2022/05/06 00:11:20;;;;;;;30.43;16.20;;;;;;;-145.18;100.00;60484.78;5046560;28;20029;-67
2022/05/06 00:13:45;;;;;;;29.87;15.27;;;;;;;-145.18;100.00;60484.78;5035847;28;20029;-66
2022/05/06 00:16:11;;;;;;;31.53;14.83;;;;;;;-145.18;100.00;60484.78;5044700;28;20103;-66
2022/05/06 00:18:36;;;;;;;29.17;16.07;;;;;;;-145.18;100.00;60484.78;5053168;28;20035;-67
2022/05/06 00:21:01;;;;;;;30.60;15.77;;;;;;;-145.18;100.00;60484.78;5037637;28;20053;-69
2022/05/06 00:23:27;;;;;;;31.77;16.30;;;;;;;-145.18;100.00;60484.78;5039458;28;20055;-69
2022/05/06 00:25:53;;;;;;;29.30;16.30;;;;;;;-145.18;100.00;60484.78;5042295;28;20025;-69
2022/05/06 00:28:18;;;;;;;29.80;14.87;;;;;;;-145.18;100.00;60484.78;5045811;28;20481;-69
2022/05/06 00:30:44;;;;;;;25.47;14.97;;;;;;;-145.18;100.00;60484.78;5039248;28;20482;-69
2022/05/06 00:33:10;;;;;;;27.50;15.33;;;;;;;-145.18;100.00;60484.78;5033247;28;20029;-69
2022/05/06 00:35:38;;;;;;;29.97;15.77;;;;;;;-145.18;100.00;60484.78;5040664;28;20033;-69
2022/05/06 00:38:05;;;;;;;33.77;16.43;;;;;;;-145.18;100.00;60484.78;5035328;28;20023;-69
2022/05/06 00:40:31;;;;;;;32.47;15.20;;;;;;;-145.18;100.00;60484.78;5035101;28;20051;-69
2022/05/06 00:42:56;;;;;;;29.00;15.27;;;;;;;-145.18;100.00;60484.78;5032562;28;20516;-69
2022/05/06 00:45:22;;;;;;;29.97;15.70;;;;;;;-145.18;100.00;60484.78;5039342;28;20025;-69
2022/05/06 00:47:49;;;;;;;31.80;16.73;;;;;;;-145.18;100.00;60484.78;5044775;28;20056;-69
2022/05/06 00:50:15;;;;;;;29.07;16.47;;;;;;;-145.18;100.00;60484.78;5037921;28;20777;-69
2022/05/06 00:52:41;;;;;;;32.13;16.60;;;;;;;-145.18;100.00;60484.78;5049634;28;20484;-69
2022/05/06 00:55:08;;;;;;;32.10;16.03;;;;;;;-145.18;100.00;60484.78;5041053;28;20112;-69
2022/05/06 00:57:34;;;;;;;30.60;15.67;;;;;;;-145.18;100.00;60484.78;5047891;28;20388;-69
2022/05/06 01:00:20;;;;;;;37.67;16.63;;;;;;;-145.18;100.00;60484.78;5036688;28;20024;-69
2022/05/06 01:02:47;;;;;;;32.90;15.70;;;;;;;-145.18;100.00;60484.78;5044583;28;20048;-69
2022/05/06 01:05:13;;;;;;;35.23;17.10;;;;;;;-145.18;100.00;60484.78;5048504;28;20035;-69
2022/05/06 01:07:39;;;;;;;31.23;16.43;;;;;;;-145.18;100.00;60484.78;5033275;28;20021;-69
2022/05/06 01:10:06;;;;;;;38.53;17.63;;;;;;;-145.18;100.00;60484.78;5040058;28;20032;-69
2022/05/06 01:12:31;;;;;;;38.30;17.60;;;;;;;-145.18;100.00;60484.78;5049347;28;20107;-69
2022/05/06 01:14:56;;;;;;;33.80;16.63;;;;;;;-145.18;100.00;60484.78;5041021;28;20608;-69
2022/05/06 01:17:22;;;;;;;32.73;16.93;;;;;;;-145.18;100.00;60484.78;5041918;28;21904;-69
2022/05/06 01:19:48;;;;;;;32.33;17.07;;;;;;;-145.18;100.00;60484.78;5043052;28;20378;-69
2022/05/06 01:22:14;;;;;;;35.00;17.50;;;;;;;-145.18;100.00;60484.78;5048890;28;20025;-69
2022/05/06 01:24:40;;;;;;;35.63;17.03;;;;;;;-145.18;100.00;60484.78;5042734;28;20021;-69
2022/05/06 01:27:16;;;;;;;31.83;16.47;;;;;;;-145.18;100.00;60484.78;5034101;28;20036;-69
2022/05/06 01:29:43;;;;;;;31.67;15.97;;;;;;;-145.18;100.00;60484.78;5034221;28;20597;-69
2022/05/06 01:32:10;;;;;;;31.30;16.33;;;;;;;-145.18;100.00;60484.78;5041004;28;20067;-69
2022/05/06 01:34:40;;;;;;;38.13;16.73;;;;;;;-145.18;100.00;60484.78;5039912;28;20028;-69
2022/05/06 01:37:08;;;;;;;34.50;17.77;;;;;;;-145.18;100.00;60484.78;5041066;28;20382;-69
2022/05/06 01:39:35;;;;;;;33.97;17.77;;;;;;;-145.18;100.00;60484.78;5034793;28;20079;-69
2022/05/06 01:42:06;;;;;;;35.67;17.97;;;;;;;-145.18;100.00;60484.78;5049948;28;20029;-69
2022/05/06 01:44:37;;;;;;;34.93;17.17;;;;;;;-145.18;100.00;60484.78;5045170;28;20028;-69
2022/05/06 01:47:05;;;;;;;42.55;18.65;;;;;;;-145.18;100.00;60484.78;5036184;28;20468;-69
2022/05/06 01:49:32;;;;;;;42.27;17.77;;;;;;;-145.18;100.00;60484.78;5050073;28;20025;-69
2022/05/06 01:51:58;;;;;;;34.47;17.30;;;;;;;-145.18;100.00;60484.78;5042957;28;20022;-69
2022/05/06 01:54:24;;;;;;;34.93;17.10;;;;;;;-145.18;100.00;60484.78;5037551;28;20082;-69
2022/05/06 01:56:50;;;;;;;37.60;16.93;;;;;;;-145.18;100.00;60484.78;5043864;28;20480;-69
2022/05/06 01:59:15;;;;;;;39.03;17.47;;;;;;;-145.18;100.00;60484.78;5031768;28;20147;-69
2022/05/06 02:01:41;;;;;;;31.30;16.27;;;;;;;-145.18;100.00;60484.78;5034421;28;20057;-69
2022/05/06 02:06:50;;;;;;;33.57;16.67;;;;;;;-145.18;100.00;60484.78;5046389;28;20495;-69
2022/05/06 02:09:16;;;;;;;33.17;16.30;;;;;;;-145.18;100.00;60484.78;5038827;28;20033;-69
2022/05/06 02:11:42;;;;;;;29.63;16.33;;;;;;;-145.18;100.00;60484.78;5050432;28;20821;-69
2022/05/06 02:14:07;;;;;;;32.60;16.07;;;;;;;-145.18;100.00;60484.78;5043258;28;20033;-69
2022/05/06 02:16:33;;;;;;;34.40;16.47;;;;;;;-145.18;100.00;60484.78;5038921;28;20026;-69
2022/05/06 02:18:59;;;;;;;32.23;16.93;;;;;;;-145.18;100.00;60484.78;5033271;28;20021;-69
2022/05/06 02:21:24;;;;;;;32.07;16.47;;;;;;;-145.18;100.00;60484.78;5043800;28;20028;-69
2022/05/06 02:23:50;;;;;;;29.50;15.93;;;;;;;-145.18;100.00;60484.78;5037586;28;20033;-69
2022/05/06 02:26:16;;;;;;;32.37;16.33;;;;;;;-145.18;100.00;60484.78;5046449;28;20103;-69
2022/05/06 02:28:41;;;;;;;34.93;16.73;;;;;;;-145.18;100.00;60484.78;5041321;28;20437;-69
2022/05/06 02:33:51;;;;;;;29.03;16.07;;;;;;;-145.18;100.00;60484.78;5034994;28;20534;-67
2022/05/06 02:36:16;;;;;;;32.97;16.30;;;;;;;-145.18;100.00;60484.78;5039260;28;20041;-66
2022/05/06 02:38:42;;;;;;;31.10;16.23;;;;;;;-145.18;100.00;60484.78;5046046;28;20028;-67
2022/05/06 02:41:08;;;;;;;33.70;16.47;;;;;;;-145.18;100.00;60484.78;5037759;28;20183;-66
2022/05/06 02:43:34;;;;;;;31.67;15.70;;;;;;;-145.18;100.00;60484.78;5048752;28;20047;-66
2022/05/06 02:45:59;;;;;;;28.53;14.83;;;;;;;-145.18;100.00;60484.78;5039478;28;20026;-66
2022/05/06 02:48:24;;;;;;;29.67;16.13;;;;;;;-145.18;100.00;60484.78;5042403;28;20066;-66
2022/05/06 02:50:50;;;;;;;29.87;16.13;;;;;;;-145.18;100.00;60484.78;5044675;28;20478;-66
2022/05/06 02:53:15;;;;;;;28.30;14.57;;;;;;;-145.18;100.00;60484.78;5052558;28;20025;-66
2022/05/06 02:55:41;;;;;;;25.43;15.00;;;;;;;-145.18;100.00;60484.78;5048385;28;20401;-66
2022/05/06 02:58:07;;;;;;;28.37;15.53;;;;;;;-145.18;100.00;60484.78;5041531;28;20033;-69
2022/05/06 03:00:32;;;;;;;26.20;14.97;;;;;;;-145.18;100.00;60484.78;5038796;28;20021;-69
2022/05/06 03:02:57;;;;;;;29.70;15.93;;;;;;;-145.18;100.00;60484.78;5036805;28;20029;-69
2022/05/06 03:05:24;;;;;;;31.70;15.23;;;;;;;-145.18;100.00;60484.78;5046145;28;20025;-69
2022/05/06 03:07:51;;;;;;;31.30;16.13;;;;;;;-145.18;100.00;60484.78;5044817;28;20056;-69
2022/05/06 03:10:16;;;;;;;28.83;16.30;;;;;;;-145.18;100.00;60484.78;5038699;28;20120;-69
2022/05/06 03:12:47;;;;;;;29.13;15.73;;;;;;;-145.18;100.00;60484.78;5034933;28;20117;-69
2022/05/06 03:15:13;;;;;;;29.35;16.55;;;;;;;-145.18;100.00;60484.78;5038281;28;20378;-69
2022/05/06 03:17:39;;;;;;;32.80;16.07;;;;;;;-145.18;100.00;60484.78;5038093;28;20033;-69
2022/05/06 03:20:07;;;;;;;35.80;17.27;;;;;;;-145.18;100.00;60484.78;5041358;28;20386;-69
2022/05/06 03:22:46;;;;;;;34.03;17.43;;;;;;;-145.18;100.00;60484.78;5051951;28;20033;-69
2022/05/06 03:25:12;;;;;;;38.03;18.40;;;;;;;-145.18;100.00;60484.78;5045180;28;20031;-69
2022/05/06 03:30:22;;;;;;;37.77;19.47;;;;;;;-145.18;100.00;60484.78;5038555;28;20033;-69
2022/05/06 03:32:48;;;;;;;38.10;18.57;;;;;;;-145.18;100.00;60484.78;5044215;28;20497;-69
2022/05/06 03:35:14;;;;;;;40.50;20.00;;;;;;;-145.18;100.00;60484.78;5049380;28;20565;-69
2022/05/06 03:37:40;;;;;;;36.60;19.97;;;;;;;-145.18;100.00;60484.78;5049393;28;20045;-69
2022/05/06 03:40:06;;;;;;;44.13;20.00;;;;;;;-145.18;100.00;60484.78;5039578;28;20076;-69
2022/05/06 03:42:31;;;;;;;36.63;18.00;;;;;;;-145.18;100.00;60484.78;5049240;28;20095;-69
2022/05/06 03:44:57;;;;;;;39.37;18.73;;;;;;;-145.18;100.00;60484.78;5050371;28;20029;-69
2022/05/06 03:47:23;;;;;;;45.67;19.53;;;;;;;-145.18;100.00;60484.78;5041185;28;20103;-69
2022/05/06 03:51:20;;;;;;;32.20;16.67;;;;;;;-145.18;100.00;60484.78;5042242;28;20048;-69
2022/05/06 03:52:34;;;;;;;32.47;16.70;;;;;;;-145.18;100.00;60484.78;5037054;28;20663;-69
2022/05/06 03:55:00;;;;;;;33.53;16.43;;;;;;;-145.18;100.00;60484.78;5044708;28;20032;-69
2022/05/06 03:57:25;;;;;;;30.13;17.63;;;;;;;-145.18;100.00;60484.78;5047105;28;20094;-69
2022/05/06 03:59:51;;;;;;;34.90;16.77;;;;;;;-145.18;100.00;60484.78;5038605;28;20082;-69
2022/05/06 04:02:16;;;;;;;31.87;17.27;;;;;;;-145.18;100.00;60484.78;5045158;28;20063;-69
2022/05/06 04:04:42;;;;;;;31.93;16.50;;;;;;;-145.18;100.00;60484.78;5048770;28;20032;-69
2022/05/06 04:07:07;;;;;;;31.43;16.90;;;;;;;-145.18;100.00;60484.78;5037323;28;20033;-69
2022/05/06 04:09:33;;;;;;;30.57;16.70;;;;;;;-145.18;100.00;60484.78;5044233;28;20493;-69
2022/05/06 04:11:59;;;;;;;32.07;15.80;;;;;;;-145.18;100.00;60484.78;5046015;28;20064;-69
2022/05/06 04:14:25;;;;;;;31.83;16.83;;;;;;;-145.18;100.00;60484.78;5036266;28;20030;-69
2022/05/06 04:16:50;;;;;;;29.17;15.43;;;;;;;-145.18;100.00;60484.78;5040437;28;20032;-69
2022/05/06 04:19:16;;;;;;;31.57;16.67;;;;;;;-145.18;100.00;60484.78;5051116;28;20036;-69
2022/05/06 04:24:25;;;;;;;29.00;17.23;;;;;;;-145.18;100.00;60484.78;5048128;28;20444;-69
2022/05/06 04:26:51;;;;;;;47.00;17.70;;;;;;;-145.18;100.00;60484.78;5039186;28;20045;-69
2022/05/06 04:29:17;;;;;;;36.97;17.07;;;;;;;-145.18;100.00;60484.78;5038103;28;20040;-69
2022/05/06 04:31:42;;;;;;;28.63;16.23;;;;;;;-145.18;100.00;60484.78;5041417;28;20052;-69
2022/05/06 04:34:08;;;;;;;28.27;15.60;;;;;;;-145.18;100.00;60484.78;5043264;28;20024;-69
2022/05/06 04:36:33;;;;;;;28.23;15.97;;;;;;;-145.18;100.00;60484.78;5039111;28;20385;-70
2022/05/06 04:38:58;;;;;;;28.63;15.97;;;;;;;-145.18;100.00;60484.78;5036058;28;20087;-69
2022/05/06 04:41:24;;;;;;;31.23;16.90;;;;;;;-145.18;100.00;60484.78;5047015;28;20079;-69
2022/05/06 04:43:50;;;;;;;31.13;16.67;;;;;;;-145.18;100.00;60484.78;5033812;28;20029;-69
2022/05/06 04:46:15;;;;;;;30.47;17.13;;;;;;;-145.18;100.00;60484.78;5041369;28;20040;-69
2022/05/06 04:48:40;;;;;;;34.40;16.03;;;;;;;-145.18;100.00;60484.78;5036056;28;20484;-69
2022/05/06 04:51:06;;;;;;;31.50;16.23;;;;;;;-145.18;100.00;60484.78;5045714;28;20024;-69
2022/05/06 04:53:32;;;;;;;27.07;14.97;;;;;;;-145.18;100.00;60484.78;5032147;28;20092;-69
2022/05/06 04:55:57;;;;;;;26.70;13.87;;;;;;;-145.18;100.00;60484.78;5035753;28;20021;-69
2022/05/06 04:58:23;;;;;;;23.73;13.07;;;;;;;-145.18;100.00;60484.78;5046405;28;20059;-68
2022/05/06 05:00:49;;;;;;;23.27;12.43;;;;;;;-145.18;100.00;60484.78;5037559;28;20029;-68
2022/05/06 05:03:15;;;;;;;23.47;11.37;;;;;;;-145.18;100.00;60484.78;5036588;28;20041;-68
2022/05/06 05:05:40;;;;;;;18.77;11.07;;;;;;;-145.18;100.00;60484.78;5043885;28;20096;-68
2022/05/06 05:08:08;;;;;;;19.90;11.53;;;;;;;-145.18;100.00;60484.78;5042059;28;20097;-68
2022/05/06 05:10:35;;;;;;;17.80;11.60;;;;;;;-145.18;100.00;60484.78;5033956;28;20124;-68
2022/05/06 05:13:01;;;;;;;17.23;11.20;;;;;;;-145.18;100.00;60484.78;5036454;28;20025;-68
2022/05/06 05:15:27;;;;;;;18.80;10.80;;;;;;;-145.18;100.00;60484.78;5041915;28;20028;-69
2022/05/06 05:17:52;;;;;;;21.30;10.53;;;;;;;-145.18;100.00;60484.78;5039600;28;20036;-68
2022/05/06 05:20:18;;;;;;;19.23;11.30;;;;;;;-145.18;100.00;60484.78;5043667;28;20095;-69
2022/05/06 05:22:44;;;;;;;19.73;11.23;;;;;;;-145.18;100.00;60484.78;5050453;28;20029;-69
2022/05/06 05:25:09;;;;;;;23.42;11.02;;;;;;;-145.18;100.00;60484.78;5037271;28;20021;-69
2022/05/06 05:27:39;;;;;;;21.33;11.63;;;;;;;-145.18;100.00;60484.78;5032879;28;20029;-69
2022/05/06 05:30:07;;;;;;;27.35;12.15;;;;;;;-145.18;100.00;60484.78;5044125;28;20475;-69
2022/05/06 05:32:33;;;;;;;21.95;10.73;;;;;;;-145.18;100.00;60484.78;5030902;28;20033;-69
2022/05/06 05:34:58;;;;;;;21.08;11.15;;;;;;;-145.18;100.00;60484.78;5046296;28;20029;-69
2022/05/06 05:37:24;;;;;;;16.27;10.75;;;;;;;-145.18;100.00;60484.78;5041570;28;20033;-69
2022/05/06 05:39:50;;;;;;;19.30;10.63;;;;;;;-145.18;100.00;60484.78;5034965;28;20120;-69
2022/05/06 05:42:27;;;;;;;18.65;10.68;;;;;;;-145.18;100.00;60484.78;5046997;28;20032;-69
2022/05/06 05:50:21;;;;;;;19.33;11.07;;;;;;;-145.18;100.00;60484.78;5042739;28;20039;-69
2022/05/06 05:52:46;;;;;;;16.92;11.23;;;;;;;-145.18;100.00;60484.78;5034409;28;20017;-69
2022/05/06 05:55:12;;;;;;;17.17;10.65;;;;;;;-145.18;100.00;60484.78;5035363;28;20359;-66
2022/05/06 05:57:38;;;;;;;14.82;9.85;;;;;;;-145.18;100.00;60484.78;5036650;28;20108;-66
2022/05/06 06:00:05;;;;;;;18.67;10.75;;;;;;;-145.18;100.00;60484.78;5043886;28;20021;-66
2022/05/06 06:02:30;;;;;;;16.13;9.98;;;;;;;-145.18;100.00;60484.78;5040019;28;20025;-66
2022/05/06 06:04:56;;;;;;;17.10;10.18;;;;;;;-145.18;100.00;60484.78;5034321;28;20108;-67
2022/05/06 06:07:21;;;;;;;15.90;10.43;;;;;;;-145.18;100.00;60484.78;5031483;28;20463;-66
2022/05/06 06:09:47;;;;;;;16.48;9.93;;;;;;;-145.18;100.00;60484.78;5039085;28;20532;-67
2022/05/06 06:12:12;;;;;;;16.42;10.20;;;;;;;-145.18;100.00;60484.78;5032622;28;20739;-66
2022/05/06 06:14:37;;;;;;;17.38;9.57;;;;;;;-145.18;100.00;60484.78;5035356;28;20048;-66
2022/05/06 06:17:03;;;;;;;14.95;9.40;;;;;;;-145.18;100.00;60484.78;5035086;28;20064;-69
2022/05/06 06:19:28;;;;;;;16.27;8.98;;;;;;;-145.18;100.00;60484.78;5037077;28;20024;-66
2022/05/06 06:21:54;;;;;;;15.75;9.27;;;;;;;-145.18;100.00;60484.78;5040962;28;20024;-66
2022/05/06 06:24:19;;;;;;;14.80;8.35;;;;;;;-145.18;100.00;60484.78;5034166;28;20041;-66
2022/05/06 06:26:45;;;;;;;13.52;7.97;;;;;;;-145.18;100.00;60484.78;5042472;28;20112;-66
2022/05/06 06:29:11;;;;;;;13.45;8.40;;;;;;;-145.18;100.00;60484.78;5043735;28;20036;-66
2022/05/06 06:31:37;;;;;;;14.10;8.38;;;;;;;-145.18;100.00;60484.78;5033293;28;20030;-66
2022/05/06 06:34:03;;;;;;;11.57;7.68;;;;;;;-145.18;100.00;60484.78;5042684;28;20164;-66
2022/05/06 06:36:29;;;;;;;12.35;7.55;;;;;;;-145.18;100.00;60484.78;5030116;28;20207;-66
2022/05/06 06:38:55;;;;;;;13.30;7.25;;;;;;;-145.18;100.00;60484.78;5048540;28;20079;-66
2022/05/06 06:41:23;;;;;;;9.75;7.20;;;;;;;-145.18;100.00;60484.78;5041037;28;20031;-66
2022/05/06 06:43:49;;;;;;;11.15;7.22;;;;;;;-145.18;100.00;60484.78;5036174;28;20056;-68
2022/05/06 06:46:15;;;;;;;11.70;6.60;;;;;;;-145.18;100.00;60484.78;5049700;28;20037;-66
2022/05/06 06:48:41;;;;;;;14.70;7.30;;;;;;;-145.18;100.00;60484.78;5048714;28;20035;-66
2022/05/06 06:51:07;;;;;;;11.35;6.40;;;;;;;-145.18;100.00;60484.78;5049745;28;20028;-66
2022/05/06 06:53:33;;;;;;;13.20;6.60;;;;;;;-145.18;100.00;60484.78;5041890;28;20473;-66
2022/05/06 06:55:58;;;;;;;9.85;6.45;;;;;;;-145.18;100.00;60484.78;5046652;28;20057;-66
2022/05/06 06:58:25;;;;;;;10.13;7.03;;;;;;;-145.18;100.00;60484.78;5037854;28;20032;-66
2022/05/06 07:00:50;;;;;;;11.10;6.40;;;;;;;-145.18;100.00;60484.78;5049524;28;20025;-66
2022/05/06 07:03:16;;;;;;;13.02;6.50;;;;;;;-145.18;100.00;60484.78;5037910;28;20556;-66
2022/05/06 07:13:55;;;;;;;7.93;6.00;;;;;;;-145.18;100.00;60484.78;5049146;28;20400;-66
2022/05/06 07:16:20;;;;;;;10.77;5.63;;;;;;;-145.18;100.00;60484.78;5052889;28;20087;-66
2022/05/06 07:18:46;;;;;;;9.65;6.10;;;;;;;-145.18;100.00;60484.78;5051967;28;20021;-66
2022/05/06 07:21:11;;;;;;;11.50;6.07;;;;;;;-145.18;100.00;60484.78;5048621;28;20461;-66
2022/05/06 07:23:36;;;;;;;9.35;6.18;;;;;;;-145.18;100.00;60484.78;5052567;28;20033;-66
2022/05/06 07:26:02;;;;;;;11.80;5.72;;;;;;;-145.18;100.00;60484.78;5051769;28;20063;-65
2022/05/06 07:28:27;;;;;;;10.98;5.38;;;;;;;-145.18;100.00;60484.78;5044887;28;20496;-66
2022/05/06 07:30:53;;;;;;;10.30;5.38;;;;;;;-145.18;100.00;60484.78;5053738;28;20056;-66
2022/05/06 07:33:18;;;;;;;11.63;5.57;;;;;;;-145.18;100.00;60484.78;5049079;28;20123;-66
2022/05/06 07:35:43;;;;;;;10.05;5.28;;;;;;;-145.18;100.00;60484.78;5045767;28;20029;-66
2022/05/06 07:38:09;;;;;;;9.60;5.40;;;;;;;-145.18;100.00;60484.78;5041952;28;20033;-66
2022/05/06 07:40:34;;;;;;;9.40;5.13;;;;;;;-145.18;100.00;60484.78;5051190;28;20025;-66
2022/05/06 07:43:00;;;;;;;10.85;5.18;;;;;;;-145.18;100.00;60484.78;5043831;28;20045;-66
2022/05/06 07:45:25;;;;;;;12.48;5.20;;;;;;;-145.18;100.00;60484.78;5048831;28;20020;-66
2022/05/06 07:47:50;;;;;;;10.63;5.65;;;;;;;-145.18;100.00;60484.78;5052226;28;20033;-66
2022/05/06 07:50:16;;;;;;;9.73;5.55;;;;;;;-145.18;100.00;60484.78;5051221;28;20028;-66
2022/05/06 07:52:41;;;;;;;11.73;5.47;;;;;;;-145.18;100.00;60484.78;5053455;28;20031;-66
2022/05/06 07:55:10;;;;;;;9.88;5.25;;;;;;;-145.18;100.00;60484.78;5048082;28;20179;-66
2022/05/06 07:57:36;;;;;;;10.80;5.63;;;;;;;-145.18;100.00;60484.78;5041811;28;20156;-66
2022/05/06 08:00:03;;;;;;;12.07;5.55;;;;;;;-145.18;100.00;60484.78;5048998;28;20144;-66
2022/05/06 08:05:13;;;;;;;14.48;6.03;;;;;;;-145.18;100.00;60484.78;5040821;28;20029;-66
2022/05/06 08:07:38;;;;;;;10.70;5.47;;;;;;;-145.18;100.00;60484.78;5036572;28;20033;-66
2022/05/06 08:10:06;;;;;;;11.98;5.38;;;;;;;-145.18;100.00;60484.78;5048462;28;20089;-66
2022/05/06 08:12:32;;;;;;;13.38;5.60;;;;;;;-145.18;100.00;60484.78;5052839;28;20431;-66
2022/05/06 08:14:58;;;;;;;10.52;5.47;;;;;;;-145.18;100.00;60484.78;5051902;28;20025;-66
2022/05/06 08:17:23;;;;;;;11.05;5.82;;;;;;;-145.18;100.00;60484.78;5053016;28;20032;-66
2022/05/06 08:19:49;;;;;;;12.38;5.63;;;;;;;-145.18;100.00;60484.78;5051780;28;20072;-66
2022/05/06 08:22:14;;;;;;;13.18;5.97;;;;;;;-145.18;100.00;60484.78;5053192;28;20031;-66
2022/05/06 08:24:39;;;;;;;11.75;5.90;;;;;;;-145.18;100.00;60484.78;5046583;28;20419;-66
2022/05/06 08:27:05;;;;;;;13.80;6.22;;;;;;;-145.18;100.00;60484.78;5051358;28;20389;-66
2022/05/06 08:29:30;;;;;;;12.95;5.93;;;;;;;-145.18;100.00;60484.78;5037408;28;20017;-65
2022/05/06 08:31:56;;;;;;;13.07;6.38;;;;;;;-145.18;100.00;60484.78;5052853;28;20035;-66
2022/05/06 08:34:21;;;;;;;13.05;6.50;;;;;;;-145.18;100.00;60484.78;5047075;28;20033;-65
2022/05/06 08:36:47;;;;;;;11.38;7.10;;;;;;;-145.18;100.00;60484.78;5048770;28;20047;-65
2022/05/06 08:39:14;;;;;;;12.40;6.57;;;;;;;-145.18;100.00;60484.78;5047315;28;20421;-66
2022/05/06 08:41:40;;;;;;;14.32;6.90;;;;;;;-145.18;100.00;60484.78;5049072;28;20039;-66
2022/05/06 08:52:40;;;;;;;13.07;7.45;;;;;;;-145.18;100.00;60484.78;5032685;28;20056;-65
2022/05/06 08:55:06;;;;;;;13.60;8.27;;;;;;;-145.18;100.00;60484.78;5043105;28;20031;-65
2022/05/06 08:57:32;;;;;;;13.15;8.10;;;;;;;-145.18;100.00;60484.78;5039117;28;20474;-66
2022/05/06 08:59:57;;;;;;;12.43;8.27;;;;;;;-145.18;100.00;60484.78;5038776;28;20021;-66
2022/05/06 09:02:23;;;;;;;17.40;8.35;;;;;;;-145.18;100.00;60484.78;5048844;28;20389;-66
2022/05/06 09:04:48;;;;;;;16.38;8.40;;;;;;;-145.18;100.00;60484.78;5050302;28;20036;-66
2022/05/06 09:07:21;;;;;;;13.27;8.52;;;;;;;-145.18;100.00;60484.78;5043765;28;20043;-66
2022/05/06 09:10:05;;;;;;;13.85;9.40;;;;;;;-145.18;100.00;60484.78;5044359;28;20145;-65
2022/05/06 09:12:42;;;;;;;17.77;10.10;;;;;;;-145.18;100.00;60484.78;5038584;28;20063;-66
2022/05/06 09:17:56;;;;;;;12.68;9.50;;;;;;;-145.18;100.00;60484.78;5051158;28;20106;-66
2022/05/06 09:20:22;;;;;;;14.82;8.45;;;;;;;-145.18;100.00;60484.78;5042423;28;20064;-66
2022/05/06 09:22:50;;;;;;;13.57;9.00;;;;;;;-145.18;100.00;60484.78;5045134;28;20091;-66
2022/05/06 09:25:35;;;;;;;15.13;8.57;;;;;;;-145.18;100.00;60484.78;5048833;28;20050;-66
2022/05/06 09:28:00;;;;;;;16.65;7.55;;;;;;;-145.18;100.00;60484.78;5049823;28;20538;-66
2022/05/06 09:30:25;;;;;;;10.15;7.07;;;;;;;-145.18;100.00;60484.78;5048137;28;20120;-66
2022/05/06 09:32:51;;;;;;;14.60;8.25;;;;;;;-145.18;100.00;60484.78;5041719;28;20025;-65
2022/05/06 09:35:18;;;;;;;11.07;7.20;;;;;;;-145.18;100.00;60484.78;5050141;28;20388;-66
2022/05/06 09:37:48;;;;;;;10.57;6.22;;;;;;;-145.18;100.00;60484.78;5051606;28;20033;-66
2022/05/06 09:40:27;;;;;;;13.30;6.70;;;;;;;-145.18;100.00;60484.78;5050333;28;20397;-65
2022/05/06 09:42:55;;;;;;;10.45;7.15;;;;;;;-145.18;100.00;60484.78;5049280;28;20106;-66
2022/05/06 09:45:37;;;;;;;12.48;7.22;;;;;;;-145.18;100.00;60484.78;5042901;28;20021;-66
2022/05/06 09:48:04;;;;;;;9.82;6.97;;;;;;;-145.18;100.00;60484.78;5031361;28;20100;-66
2022/05/06 09:50:36;;;;;;;14.40;6.43;;;;;;;-145.18;100.00;60484.78;5050177;28;20040;-66
2022/05/06 09:53:07;;;;;;;9.02;6.15;;;;;;;-145.18;100.00;60484.78;5050034;28;20025;-66
2022/05/06 09:55:34;;;;;;;;;;;;;;;-145.18;100.00;60484.78;5048442;28;20892;-66
2022/05/06 09:57:59;;;;;;;10.18;6.80;;;;;;;-145.18;100.00;60484.78;5050876;28;20677;-66
2022/05/06 10:00:28;;;;;;;9.25;5.68;;;;;;;-145.18;100.00;60484.78;5040621;28;20021;-66
2022/05/06 10:02:55;;;;;;;11.35;6.47;;;;;;;-145.18;100.00;60484.78;5044479;28;20675;-66
2022/05/06 10:05:20;;;;;;;7.05;4.55;;;;;;;-145.18;100.00;60484.78;5044250;28;20020;-66
2022/05/06 10:07:47;;;;;;;12.60;5.63;;;;;;;-145.18;100.00;60484.78;5032563;28;20530;-66
2022/05/06 10:10:22;;;;;;;9.05;5.45;;;;;;;-145.18;100.00;60484.78;5041646;28;20496;-66
2022/05/06 10:12:53;;;;;;;8.15;5.20;;;;;;;-145.18;100.00;60484.78;5048951;28;20031;-66
2022/05/06 10:15:20;;;;;;;;;;;;;;;-145.18;100.00;60484.78;5049120;28;20029;-65
2022/05/06 10:17:55;;;;;;;8.52;5.30;;;;;;;-145.18;100.00;60484.78;5033049;28;19975;-66
2022/05/06 10:20:35;;;;;;;8.68;5.30;;;;;;;-145.18;100.00;60484.78;5048950;28;20059;-66
2022/05/06 10:23:02;;;;;;;9.85;5.30;;;;;;;-145.18;100.00;60484.78;5040823;28;20060;-66
2022/05/06 10:25:42;;;;;;;11.45;6.57;;;;;;;-145.18;100.00;60484.78;5043010;28;20045;-66
2022/05/06 10:34:17;;;;;;;8.77;5.25;;;;;;;-145.18;100.00;60484.78;5047679;28;20448;-66
2022/05/06 10:36:46;;;;;;;9.52;4.70;;;;;;;-145.18;100.00;60484.78;5045015;28;20103;-66
2022/05/06 10:39:33;;;;;;;7.30;4.03;;;;;;;-145.18;100.00;60484.78;5042075;28;20028;-66
2022/05/06 10:42:13;;;;;;;7.53;3.70;;;;;;;-145.18;100.00;60484.78;5050136;28;20454;-66
2022/05/06 10:44:38;;;;;;;6.03;3.38;;;;;;;-145.18;100.00;60484.78;5053288;28;20103;-66
2022/05/06 10:47:39;;;;;;;5.43;3.10;;;;;;;-145.18;100.00;60484.78;5045791;28;20113;-66
2022/05/06 10:50:23;;;;;;;6.10;3.03;;;;;;;-145.18;100.00;60484.78;5050449;28;20053;-66
2022/05/06 10:52:49;;;;;;;5.97;3.33;;;;;;;-145.18;100.00;60484.78;5054715;28;20495;-66
2022/05/06 10:55:17;;;;;;;6.95;3.25;;;;;;;-145.18;100.00;60484.78;5047664;28;20056;-66
2022/05/06 10:57:45;;;;;;;8.65;4.32;;;;;;;-145.18;100.00;60484.78;5052382;28;20452;-66
2022/05/06 11:00:12;;;;;;;9.07;4.30;;;;;;;-145.18;100.00;60484.78;5050541;28;20389;-66
2022/05/06 11:02:38;;;;;;;7.30;4.00;;;;;;;-145.18;100.00;60484.78;5049345;28;20059;-66
2022/05/06 11:05:07;;;;;;;6.47;3.70;;;;;;;-145.18;100.00;60484.78;5049811;28;20512;-66
2022/05/06 11:07:34;;;;;;;6.95;4.05;;;;;;;-145.18;100.00;60484.78;5044265;28;20040;-66
2022/05/06 11:10:10;;;;;;;7.47;3.95;;;;;;;-145.18;100.00;60484.78;5049170;28;20032;-66
2022/05/06 11:12:40;;;;;;;5.28;3.10;;;;;;;-145.18;100.00;60484.78;5053935;28;20020;-66
2022/05/06 11:15:13;;;;;;;5.55;3.03;;;;;;;-145.18;100.00;60484.78;5050219;28;20022;-66
2022/05/06 11:17:39;;;;;;;8.35;3.90;;;;;;;-145.18;100.00;60484.78;5034018;28;20092;-67
2022/05/06 11:20:14;;;;;;;11.57;3.72;;;;;;;-145.18;100.00;60484.78;5039305;28;20661;-66
2022/05/06 11:22:59;;;;;;;7.78;3.90;;;;;;;-145.18;100.00;60484.78;5054022;28;20469;-66
2022/05/06 11:25:29;;;;;;;8.80;3.60;;;;;;;-145.18;100.00;60484.78;5053037;28;20033;-66
2022/05/06 11:27:56;;;;;;;8.40;3.40;;;;;;;-145.18;100.00;60484.78;5039913;28;20087;-67
2022/05/06 11:30:23;;;;;;;7.25;3.85;;;;;;;-145.18;100.00;60484.78;5041199;28;20045;-66
2022/05/06 11:32:51;;;;;;;6.68;3.60;;;;;;;-145.18;100.00;60484.78;5034420;28;20037;-66
2022/05/06 11:35:48;;;;;;;4.80;3.30;;;;;;;-145.18;100.00;60484.78;5040578;28;20420;-66
2022/05/06 11:38:14;;;;;;;7.93;3.40;;;;;;;-145.18;100.00;60484.78;5051746;28;20048;-66
2022/05/06 11:40:40;;;;;;;6.13;3.35;;;;;;;-145.18;100.00;60484.78;5039926;28;20072;-67
2022/05/06 11:43:21;;;;;;;12.25;3.70;;;;;;;-145.18;100.00;60484.78;5038233;28;20052;-67
2022/05/06 11:48:32;;;;;;;7.47;4.90;;;;;;;-145.18;100.00;60484.78;5036963;28;20058;-67